createdAt,value
2017-11-16T13:55:39.022Z,41.19
2017-11-16T13:56:44.069Z,41.08
2017-11-16T14:16:24.794Z,73.47
2017-11-16T14:17:30.053Z,73.26
2017-11-16T14:18:34.911Z,73.23
2017-11-16T14:19:46.523Z,74.42
2017-11-16T14:20:51.409Z,74.82
2017-11-16T14:21:56.464Z,74.79
2017-11-16T14:23:01.328Z,75.47
2017-11-16T14:24:06.178Z,76.42
2017-11-16T14:25:11.055Z,75.29
2017-11-16T14:26:15.882Z,74.51
2017-11-16T14:27:20.714Z,74.46
2017-11-16T14:28:25.885Z,75.20
2017-11-16T14:29:31.084Z,76.07
2017-11-16T14:30:36.695Z,76.43
2017-11-16T14:31:41.487Z,76.67
2017-11-16T14:32:46.334Z,76.07
2017-11-16T14:33:51.404Z,75.78
2017-11-16T14:34:56.549Z,76.04
2017-11-16T14:36:01.366Z,75.92
2017-11-16T14:37:06.146Z,76.20
2017-11-16T14:38:10.930Z,76.05
2017-11-16T14:39:15.804Z,76.85
2017-11-16T14:40:20.611Z,76.56
2017-11-16T14:41:25.778Z,76.09
2017-11-16T14:42:31.620Z,77.27
2017-11-16T14:43:36.391Z,76.95
2017-11-16T14:44:41.165Z,76.46
2017-11-16T14:45:46.009Z,76.34
2017-11-16T14:46:50.725Z,77.37
2017-11-16T14:47:55.876Z,77.63
2017-11-16T14:49:00.628Z,77.59
2017-11-16T14:50:05.366Z,77.16
2017-11-16T14:51:10.056Z,77.73
2017-11-16T14:52:14.832Z,77.63
2017-11-16T14:53:19.742Z,77.63
2017-11-16T14:54:25.171Z,76.89
2017-11-16T14:55:29.993Z,77.62
2017-11-16T14:56:34.759Z,77.75
2017-11-16T14:57:39.474Z,78.01
2017-11-16T14:58:44.306Z,78.12
2017-11-16T14:59:49.120Z,78.38
2017-11-16T15:00:54.127Z,78.60
2017-11-16T15:01:58.892Z,77.91
2017-11-16T15:03:03.638Z,77.97
2017-11-16T15:04:08.385Z,78.32
2017-11-16T15:05:13.137Z,77.83
2017-11-16T15:06:17.892Z,78.12
2017-11-16T15:07:22.945Z,77.29
2017-11-16T15:08:27.688Z,77.91
2017-11-16T15:09:32.468Z,78.47
2017-11-16T15:10:37.237Z,78.91
2017-11-16T15:11:42.087Z,78.92
2017-11-16T15:12:46.794Z,78.81
2017-11-16T15:13:51.915Z,79.16
2017-11-16T15:14:56.655Z,79.19
2017-11-16T15:16:01.535Z,79.28
2017-11-16T15:17:06.328Z,78.75
2017-11-16T15:18:11.129Z,78.67
2017-11-16T15:19:16.094Z,78.94
2017-11-16T15:20:21.404Z,78.77
2017-11-16T15:21:26.103Z,78.53
2017-11-16T15:22:30.865Z,79.70
2017-11-16T15:23:35.607Z,79.44
2017-11-16T15:24:40.454Z,79.02
2017-11-16T15:25:45.214Z,79.27
2017-11-16T15:26:50.522Z,79.50
2017-11-16T15:27:55.268Z,79.38
2017-11-16T15:29:00.237Z,79.17
2017-11-16T15:30:05.093Z,79.48
2017-11-16T15:31:09.829Z,79.40
2017-11-16T15:32:14.731Z,79.16
2017-11-16T15:33:20.389Z,79.05
2017-11-16T15:34:25.203Z,79.04
2017-11-16T15:35:30.678Z,79.76
2017-11-16T15:36:35.617Z,79.87
2017-11-16T15:37:40.408Z,79.88
2017-11-16T15:38:45.181Z,80.32
2017-11-16T15:39:50.460Z,80.34
2017-11-16T15:40:55.315Z,80.37
2017-11-16T15:42:00.149Z,80.14
2017-11-16T15:43:05.019Z,80.22
2017-11-16T15:44:09.847Z,80.25
2017-11-16T15:45:14.821Z,79.95
2017-11-16T15:46:20.090Z,81.06
2017-11-16T15:47:24.876Z,81.36
2017-11-16T15:48:29.957Z,81.18
2017-11-16T15:49:34.785Z,81.42
2017-11-16T15:50:39.735Z,81.12
2017-11-16T15:51:44.596Z,81.04
2017-11-16T15:52:49.684Z,81.60
2017-11-16T15:53:54.549Z,81.18
2017-11-16T15:54:59.382Z,81.43
2017-11-16T15:56:04.217Z,81.56
2017-11-16T15:57:09.080Z,81.69
2017-11-16T15:58:14.062Z,81.19
2017-11-16T15:59:20.502Z,81.35
2017-11-16T16:00:25.342Z,80.86
2017-11-16T16:01:30.970Z,80.53
2017-11-16T16:02:35.740Z,80.82
2017-11-16T16:03:40.556Z,80.78
2017-11-16T16:04:45.376Z,80.79
2017-11-16T16:05:50.540Z,80.63
2017-11-16T16:06:55.347Z,81.15
2017-11-16T16:08:00.054Z,80.54
2017-11-16T16:09:05.100Z,80.46
2017-11-16T16:10:09.877Z,80.56
2017-11-16T16:11:14.732Z,79.97
2017-11-16T16:12:20.078Z,79.84
2017-11-16T16:13:25.757Z,80.66
2017-11-16T16:14:30.631Z,80.22
2017-11-16T16:15:35.430Z,80.64
2017-11-16T16:16:40.235Z,79.94
2017-11-16T16:17:44.980Z,80.80
2017-11-16T16:18:49.770Z,80.20
2017-11-16T16:19:54.525Z,80.86
2017-11-16T16:20:59.326Z,81.02
2017-11-16T16:22:04.206Z,81.30
2017-11-16T16:23:10.349Z,81.05
2017-11-16T16:24:15.271Z,81.65
2017-11-16T16:25:20.081Z,81.75
2017-11-16T16:26:24.816Z,81.40
2017-11-16T16:27:29.554Z,81.69
2017-11-16T16:28:34.312Z,82.03
2017-11-16T16:29:39.457Z,81.93
2017-11-16T16:30:44.279Z,81.67
2017-11-16T16:31:49.101Z,81.65
2017-11-16T16:32:54.082Z,81.53
2017-11-16T16:33:58.908Z,81.68
2017-11-16T16:39:02.138Z,80.70
2017-11-16T16:40:06.943Z,81.10
2017-11-16T16:41:11.589Z,82.13
2017-11-16T16:42:16.356Z,82.65
2017-11-16T16:43:21.063Z,82.45
2017-11-16T17:00:34.691Z,82.71
2017-11-16T17:01:39.450Z,82.50
2017-11-16T17:02:44.263Z,82.68
2017-11-16T17:03:49.200Z,82.33
2017-11-16T17:04:54.080Z,81.85
2017-11-16T17:05:59.519Z,82.53
2017-11-16T17:07:04.437Z,82.76
2017-11-16T17:08:09.295Z,82.61
2017-11-16T17:09:14.285Z,82.59
2017-11-16T17:10:20.831Z,82.51
2017-11-16T17:11:25.587Z,83.01
2017-11-16T17:12:30.561Z,82.12
2017-11-16T17:13:38.690Z,82.63
2017-11-16T17:14:43.687Z,82.71
2017-11-16T17:15:48.516Z,82.75
2017-11-16T17:16:53.379Z,82.55
2017-11-16T17:17:58.211Z,82.20
2017-11-16T17:19:03.431Z,82.29
2017-11-16T17:20:08.292Z,82.42
2017-11-16T17:21:13.247Z,81.72
2017-11-16T17:22:18.025Z,81.87
2017-11-16T17:23:22.744Z,82.07
2017-11-16T17:24:27.496Z,81.63
2017-11-16T17:25:32.576Z,81.82
2017-11-16T17:26:38.144Z,82.46
2017-11-16T17:27:42.910Z,82.31
2017-11-16T17:28:47.667Z,82.62
2017-11-16T17:29:52.483Z,82.12
2017-11-16T17:30:57.355Z,82.24
2017-11-16T17:32:02.667Z,82.11
2017-11-16T17:33:07.311Z,82.34
2017-11-16T17:34:11.980Z,82.13
2017-11-16T17:35:16.626Z,82.72
2017-11-16T17:36:21.384Z,82.74
2017-11-16T17:37:26.127Z,82.36
2017-11-16T17:38:31.192Z,82.65
2017-11-16T17:39:35.971Z,82.84
2017-11-16T17:40:40.778Z,82.19
2017-11-16T17:41:45.400Z,81.77
2017-11-16T17:42:50.015Z,81.98
2017-11-16T17:43:54.666Z,83.08
2017-11-16T17:44:59.782Z,83.32
2017-11-16T17:46:04.526Z,82.67
2017-11-16T17:47:09.311Z,82.67
2017-11-16T17:48:14.077Z,83.21
2017-11-16T17:49:18.842Z,82.91
2017-11-16T17:50:23.626Z,82.65
2017-11-16T17:51:28.437Z,82.55
2017-11-16T17:52:33.959Z,82.38
2017-11-16T17:53:39.524Z,82.50
2017-11-16T17:54:45.076Z,82.30
2017-11-16T17:55:49.879Z,81.77
2017-11-16T17:56:54.917Z,81.87
2017-11-16T17:57:59.715Z,83.12
2017-11-16T17:59:04.492Z,83.46
2017-11-16T18:00:09.221Z,83.12
2017-11-16T18:01:13.959Z,82.79
2017-11-16T18:02:19.034Z,81.96
2017-11-16T18:03:24.125Z,81.94
2017-11-16T18:04:28.871Z,81.36
2017-11-16T18:05:33.626Z,81.97
2017-11-16T18:06:38.342Z,82.16
2017-11-16T18:07:43.165Z,82.09
2017-11-16T18:08:47.956Z,81.83
2017-11-16T18:09:53.912Z,81.80
2017-11-16T18:10:58.674Z,82.79
2017-11-16T18:12:03.483Z,82.73
2017-11-16T18:13:09.002Z,82.89
2017-11-16T18:14:13.833Z,82.68
2017-11-16T18:15:18.850Z,82.67
2017-11-16T18:16:24.212Z,82.68
2017-11-16T18:17:29.057Z,81.90
2017-11-16T18:18:33.768Z,82.70
2017-11-16T18:19:38.620Z,82.16
2017-11-16T18:20:43.408Z,81.93
2017-11-16T18:21:48.132Z,81.94
2017-11-16T18:22:53.146Z,81.94
2017-11-16T18:23:59.005Z,81.53
2017-11-16T18:25:03.865Z,81.49
2017-11-16T18:26:08.722Z,81.68
2017-11-16T18:27:14.376Z,81.90
2017-11-16T18:28:19.317Z,81.42
2017-11-16T18:29:24.580Z,81.71
2017-11-16T18:30:29.372Z,81.62
2017-11-16T18:31:34.308Z,82.22
2017-11-16T18:32:39.180Z,82.31
2017-11-16T18:33:44.012Z,82.53
2017-11-16T18:34:48.920Z,82.12
2017-11-16T18:35:54.116Z,82.37
2017-11-16T18:36:59.018Z,82.41
2017-11-16T18:38:05.028Z,82.81
2017-11-16T18:39:09.880Z,82.63
2017-11-16T18:40:14.984Z,82.60
2017-11-16T18:41:19.949Z,82.27
2017-11-16T18:42:25.196Z,82.51
2017-11-16T18:43:30.112Z,82.73
2017-11-16T18:44:36.127Z,82.64
2017-11-16T18:45:41.125Z,82.83
2017-11-16T18:46:46.480Z,82.59
2017-11-16T18:47:51.465Z,82.88
2017-11-16T18:48:56.599Z,82.69
2017-11-16T18:50:01.444Z,81.93
2017-11-16T18:51:06.296Z,82.51
2017-11-16T18:52:11.191Z,82.50
2017-11-16T18:53:16.050Z,82.60
2017-11-16T18:54:20.878Z,82.24
2017-11-16T18:55:26.055Z,82.77
2017-11-16T18:56:31.217Z,82.28
2017-11-16T18:57:36.068Z,81.42
2017-11-16T18:58:40.901Z,81.87
2017-11-16T18:59:45.751Z,82.00
2017-11-16T19:00:50.777Z,82.41
2017-11-16T19:01:55.897Z,82.69
2017-11-16T19:03:00.841Z,81.64
2017-11-16T19:04:05.709Z,81.41
2017-11-16T19:05:10.510Z,81.86
2017-11-16T19:06:15.436Z,82.60
2017-11-16T19:07:20.507Z,82.53
2017-11-16T19:08:25.558Z,82.75
2017-11-16T19:09:30.317Z,81.80
2017-11-16T19:10:35.007Z,81.74
2017-11-16T19:11:39.691Z,82.37
2017-11-16T19:12:44.590Z,81.92
2017-11-16T19:13:49.439Z,82.55
2017-11-16T19:14:54.483Z,81.93
2017-11-16T19:15:59.231Z,81.87
2017-11-16T19:17:04.033Z,81.37
2017-11-16T19:18:08.646Z,81.25
2017-11-16T19:19:13.360Z,80.45
2017-11-16T19:20:18.168Z,79.86
2017-11-16T19:21:23.382Z,80.10
2017-11-16T19:22:27.940Z,80.37
2017-11-16T19:23:32.572Z,80.88
2017-11-16T19:24:37.215Z,81.24
2017-11-16T19:25:41.861Z,80.60
2017-11-16T19:26:46.588Z,80.38
2017-11-16T19:27:51.586Z,80.91
2017-11-16T19:28:56.306Z,80.47
2017-11-16T19:30:00.945Z,79.77
2017-11-16T19:32:24.629Z,80.15
2017-11-16T19:33:29.524Z,80.94
2017-11-16T19:34:35.132Z,81.11
2017-11-16T19:35:39.905Z,81.49
2017-11-16T19:36:44.700Z,81.23
2017-11-16T19:37:49.415Z,81.07
2017-11-16T19:38:54.189Z,80.69
2017-11-16T19:39:59.849Z,80.28
2017-11-16T19:41:05.045Z,80.59
2017-11-16T19:42:09.857Z,81.43
2017-11-16T19:43:14.581Z,81.42
2017-11-16T19:44:19.445Z,82.22
2017-11-16T19:45:24.216Z,82.48
2017-11-16T19:46:29.035Z,82.21
2017-11-16T19:47:34.068Z,82.39
2017-11-16T19:48:38.810Z,81.88
2017-11-16T19:49:43.700Z,81.29
2017-11-16T19:50:48.502Z,81.29
2017-11-16T19:51:53.332Z,81.07
2017-11-16T19:52:58.140Z,81.52
2017-11-16T19:54:03.361Z,81.72
2017-11-16T19:55:08.575Z,81.25
2017-11-16T19:56:13.919Z,81.64
2017-11-16T19:57:18.774Z,81.55
2017-11-16T19:58:23.814Z,81.71
2017-11-16T19:59:28.763Z,81.20
2017-11-16T20:14:58.252Z,82.10
2017-11-16T20:16:02.940Z,81.96
2017-11-16T20:17:08.736Z,81.93
2017-11-16T20:18:13.510Z,82.12
2017-11-16T20:19:18.277Z,81.99
2017-11-16T20:20:23.468Z,81.82
2017-11-16T20:21:28.582Z,81.41
2017-11-16T20:22:33.992Z,81.15
2017-11-16T20:23:38.829Z,81.47
2017-11-16T20:24:43.576Z,82.07
2017-11-16T20:25:48.495Z,82.70
2017-11-16T20:26:53.559Z,82.33
2017-11-16T20:27:58.402Z,82.10
2017-11-16T20:29:03.093Z,82.04
2017-11-16T20:30:08.587Z,82.62
2017-11-16T20:31:13.318Z,82.77
2017-11-16T20:32:18.152Z,82.94
2017-11-16T20:33:23.151Z,83.33
2017-11-16T20:34:28.058Z,83.41
2017-11-16T20:35:32.952Z,83.25
2017-11-16T20:36:38.030Z,82.73
2017-11-16T20:37:43.079Z,83.44
2017-11-16T20:38:48.088Z,83.02
2017-11-16T20:39:53.787Z,82.88
2017-11-16T20:40:58.953Z,83.38
2017-11-16T20:42:04.023Z,83.63
2017-11-16T20:43:09.045Z,83.11
2017-11-16T20:44:14.274Z,82.80
2017-11-16T20:45:19.779Z,83.56
2017-11-16T20:46:25.067Z,84.19
2017-11-16T20:47:30.311Z,83.56
2017-11-16T20:48:35.427Z,82.97
2017-11-16T20:49:40.579Z,82.39
2017-11-16T20:50:45.596Z,82.22
2017-11-16T20:51:50.531Z,82.26
2017-11-16T20:52:55.788Z,82.85
2017-11-16T20:54:00.733Z,82.41
2017-11-16T20:55:05.842Z,82.79
2017-11-16T20:56:10.766Z,83.11
2017-11-16T20:57:15.665Z,83.57
2017-11-16T20:58:20.480Z,83.73
2017-11-16T20:59:25.675Z,84.61
2017-11-16T21:00:30.899Z,83.99
2017-11-16T21:01:35.759Z,83.76
2017-11-16T21:02:40.679Z,83.46
2017-11-16T21:03:49.701Z,83.43
2017-11-16T21:04:55.267Z,83.87
2017-11-16T21:06:01.179Z,83.67
2017-11-16T21:07:06.046Z,83.08
2017-11-16T21:08:10.853Z,83.71
2017-11-16T21:09:15.710Z,84.63
2017-11-16T21:10:20.670Z,85.14
2017-11-16T21:11:25.451Z,85.40
2017-11-16T21:12:30.708Z,85.67
2017-11-16T21:13:35.553Z,85.62
2017-11-16T21:14:40.515Z,85.41
2017-11-16T21:15:45.334Z,84.64
2017-11-16T21:16:50.223Z,83.54
2017-11-16T21:17:55.184Z,84.22
2017-11-16T21:19:00.885Z,85.06
2017-11-16T21:20:05.647Z,84.80
2017-11-16T21:21:10.457Z,85.11
2017-11-16T21:22:15.233Z,84.94
2017-11-16T21:23:19.949Z,84.97
2017-11-16T21:24:24.715Z,85.16
2017-11-16T21:25:29.806Z,84.77
2017-11-16T21:26:34.561Z,85.15
2017-11-16T21:27:39.283Z,85.85
2017-11-16T21:28:44.014Z,86.10
2017-11-16T21:29:48.854Z,85.34
2017-11-16T21:30:53.519Z,85.33
2017-11-16T21:31:58.542Z,84.89
2017-11-16T21:33:03.280Z,85.00
2017-11-16T21:34:08.010Z,85.34
2017-11-16T21:35:12.767Z,85.36
2017-11-16T21:36:17.485Z,85.05
2017-11-16T21:37:22.291Z,85.37
2017-11-16T21:38:27.384Z,85.58
2017-11-16T21:39:32.109Z,86.54
2017-11-16T21:40:36.829Z,86.74
2017-11-16T21:41:41.534Z,86.80
2017-11-16T21:42:46.493Z,86.20
2017-11-16T21:43:51.493Z,86.21
2017-11-16T21:44:56.786Z,86.42
2017-11-16T21:46:01.536Z,86.15
2017-11-16T21:47:06.382Z,85.53
2017-11-16T21:48:11.232Z,85.18
2017-11-16T21:49:15.980Z,85.34
2017-11-16T21:50:20.856Z,84.84
2017-11-16T21:51:25.722Z,84.03
2017-11-16T21:52:30.324Z,85.00
2017-11-16T21:53:35.080Z,85.24
2017-11-16T21:54:39.771Z,85.01
2017-11-16T21:55:44.479Z,85.30
2017-11-16T21:56:49.228Z,85.96
2017-11-16T21:57:54.288Z,85.92
2017-11-16T21:58:59.028Z,86.84
2017-11-16T22:00:03.755Z,86.46
2017-11-16T22:01:08.471Z,86.76
2017-11-16T22:02:13.212Z,86.19
2017-11-16T22:03:18.027Z,86.71
2017-11-16T22:04:23.138Z,87.02
2017-11-16T22:05:27.858Z,86.78
2017-11-16T22:06:32.652Z,86.32
2017-11-16T22:07:37.336Z,85.88
2017-11-16T22:08:42.052Z,85.62
2017-11-16T22:09:46.803Z,85.76
2017-11-16T22:10:51.856Z,85.96
2017-11-16T22:11:57.330Z,85.98
2017-11-16T22:13:02.057Z,85.98
2017-11-16T22:14:06.712Z,85.78
2017-11-16T22:15:11.436Z,85.77
2017-11-16T22:16:16.169Z,85.74
2017-11-16T22:17:21.286Z,85.90
2017-11-16T22:18:26.085Z,86.53
2017-11-16T22:19:30.852Z,86.97
2017-11-16T22:20:35.646Z,87.38
2017-11-16T22:21:40.613Z,87.52
2017-11-16T22:22:45.438Z,87.00
2017-11-16T22:23:50.662Z,87.31
2017-11-16T22:24:55.623Z,87.77
2017-11-16T22:26:00.524Z,87.57
2017-11-16T22:27:04.753Z,87.80
2017-11-16T22:28:09.385Z,88.29
2017-11-16T22:29:13.971Z,88.52
2017-11-16T22:30:19.321Z,87.93
2017-11-16T22:31:24.025Z,87.40
2017-11-16T22:32:28.754Z,86.56
2017-11-16T22:33:33.412Z,86.42
2017-11-16T22:34:38.107Z,86.18
2017-11-16T22:35:43.001Z,86.17
2017-11-16T22:36:47.836Z,86.17
2017-11-16T22:37:52.670Z,86.18
2017-11-16T22:38:57.822Z,86.97
2017-11-16T22:40:02.716Z,87.15
2017-11-16T22:41:07.533Z,87.11
2017-11-16T22:42:12.653Z,87.29
2017-11-16T22:43:17.449Z,87.38
2017-11-16T22:44:22.301Z,88.43
2017-11-16T22:45:27.081Z,88.51
2017-11-16T22:46:32.025Z,88.34
2017-11-16T22:47:36.794Z,88.63
2017-11-16T22:48:42.437Z,88.75
2017-11-16T22:49:47.404Z,88.65
2017-11-16T22:50:52.259Z,88.61
2017-11-16T22:51:57.224Z,88.31
2017-11-16T22:53:02.154Z,87.93
2017-11-16T22:54:07.167Z,87.70
2017-11-16T22:55:12.973Z,87.77
2017-11-16T22:56:18.139Z,87.13
2017-11-16T22:57:23.651Z,87.49
2017-11-16T22:58:28.624Z,87.57
2017-11-16T22:59:33.568Z,87.71
2017-11-16T23:16:03.755Z,89.21
2017-11-16T23:17:08.620Z,90.51
2017-11-16T23:18:13.531Z,91.54
2017-11-16T23:19:18.324Z,91.80
2017-11-16T23:20:23.166Z,92.48
2017-11-16T23:21:28.212Z,92.44
2017-11-16T23:22:32.944Z,91.95
2017-11-16T23:23:37.664Z,91.95
2017-11-16T23:24:42.527Z,91.84
2017-11-16T23:25:47.426Z,91.12
2017-11-16T23:26:52.681Z,91.60
2017-11-16T23:27:57.802Z,91.92
2017-11-16T23:29:02.622Z,91.65
2017-11-16T23:30:07.595Z,91.86
2017-11-16T23:31:12.391Z,91.43
2017-11-16T23:32:17.257Z,91.43
2017-11-16T23:33:22.166Z,92.13
2017-11-16T23:34:27.496Z,91.88
2017-11-16T23:35:32.286Z,91.55
2017-11-16T23:36:37.080Z,91.29
2017-11-16T23:37:41.993Z,91.49
2017-11-16T23:38:46.851Z,91.89
2017-11-16T23:39:51.666Z,91.38
2017-11-16T23:40:56.789Z,91.15
2017-11-16T23:42:01.792Z,91.58
2017-11-16T23:43:06.992Z,91.04
2017-11-16T23:44:12.134Z,90.85
2017-11-16T23:45:17.312Z,91.05
2017-11-16T23:46:22.177Z,90.67
2017-11-16T23:47:27.448Z,90.80
2017-11-16T23:48:32.759Z,91.68
2017-11-16T23:49:38.204Z,91.78
2017-11-16T23:50:43.224Z,90.93
2017-11-16T23:51:48.190Z,90.93
2017-11-16T23:52:53.223Z,90.94
2017-11-16T23:53:58.623Z,90.72
2017-11-16T23:55:03.581Z,90.61
2017-11-16T23:56:08.356Z,90.12
2017-11-16T23:57:13.139Z,90.69
2017-11-16T23:58:17.896Z,91.10
2017-11-16T23:59:22.714Z,91.13
